Date,TemperatureHighF,TemperatureAvgF,TemperatureLowF,DewpointHighF,DewpointAvgF,DewpointLowF,HumidityHigh,HumidityAvg,HumidityLow,PressureMaxIn,PressureMinIn,WindSpeedMaxMPH,WindSpeedAvgMPH,GustSpeedMaxMPH,PrecipitationSumIn
2013-1-1,26,17,13,9,6,5,73,62,47,0.00,40.00,20,4,33,0.00
2013-1-2,23,14,8,8,3,-4,81,63,36,0.00,40.00,5,2,9,0.00
2013-1-3,39,28,18,8,1,-3,43,32,24,0.00,40.00,5,1,9,0.00
2013-1-4,37,30,26,14,6,-4,53,37,24,0.00,40.00,13,3,19,0.00
2013-1-5,34,27,23,13,10,4,59,49,32,0.00,40.00,13,5,16,0.00
2013-1-6,35,30,25,18,11,3,58,45,32,0.00,40.00,19,9,28,0.00
2013-1-7,33,29,27,20,14,9,65,52,45,0.00,40.00,22,13,39,0.00
2013-1-8,33,31,29,22,14,6,73,50,33,0.00,40.00,28,15,49,0.00
2013-1-9,40,34,31,20,17,14,60,49,40,0.00,40.00,28,14,45,0.00
2013-1-10,35,20,4,26,10,-7,90,64,44,0.00,40.00,26,15,36,0.00
2013-1-11,6,2,-1,-6,-10,-13,69,56,46,0.00,40.00,24,11,35,0.00
2013-1-12,8,1,-4,-5,-8,-13,68,63,55,0.00,40.00,5,2,12,0.00
2013-1-13,13,5,1,-3,-7,-9,70,58,45,0.00,40.00,9,3,15,0.00
2013-1-14,16,6,0,8,-5,-13,73,61,48,0.00,40.00,10,4,16,0.00
2013-1-15,25,19,12,15,10,5,78,68,56,0.00,40.00,10,4,20,0.00
2013-1-16,40,32,23,16,10,6,57,40,28,0.00,40.00,23,11,37,0.00
2013-1-17,45,35,30,12,9,3,42,33,23,0.00,40.00,12,5,23,0.00
2013-1-18,49,37,33,10,5,1,31,26,19,0.00,40.00,25,10,48,0.00
2013-1-19,42,36,32,7,3,-1,27,25,18,0.00,40.00,21,6,36,0.00
2013-1-20,36,29,18,15,9,2,70,45,24,0.00,40.00,20,6,31,0.00
2013-1-21,46,37,30,12,5,-3,38,27,18,0.00,40.00,8,4,23,0.00
2013-1-22,43,37,32,1,-7,-19,22,15,7,0.00,40.00,11,4,17,0.00
2013-1-23,46,40,35,9,4,-6,30,22,12,0.00,40.00,13,5,27,0.00
2013-1-24,41,37,32,20,14,7,50,39,25,0.00,40.00,24,11,38,0.00
2013-1-25,38,34,31,25,18,13,71,53,45,0.00,40.00,19,9,29,0.00
2013-1-26,45,36,27,26,23,19,77,60,42,0.00,40.00,20,8,32,0.00
2013-1-27,27,23,18,20,11,4,80,60,47,0.00,40.00,14,7,24,0.00
2013-1-28,27,20,16,8,5,1,64,52,37,0.00,40.00,14,7,23,0.00
2013-1-29,20,15,7,11,3,-5,81,60,39,0.00,40.00,16,7,27,0.00
2013-1-30,32,27,15,19,16,8,79,64,56,0.00,40.00,34,23,56,0.00
2013-1-31,36,33,31,23,18,15,69,55,49,0.00,40.00,19,7,45,0.00
2013-2-1,36,31,26,22,16,12,74,54,41,0.00,40.00,27,13,45,0.00
2013-2-2,40,31,24,18,14,10,61,49,36,0.00,40.00,12,6,19,0.00
2013-2-3,44,34,31,14,9,5,42,36,28,0.00,40.00,14,5,23,0.00
2013-2-4,38,33,32,21,14,10,56,46,37,0.00,40.00,21,10,35,0.00
2013-2-5,40,33,30,24,18,14,69,54,45,0.00,40.00,20,7,30,0.00
2013-2-6,33,29,25,23,13,8,77,51,38,0.00,40.00,20,8,28,0.00
2013-2-7,33,28,24,13,9,6,51,44,36,0.00,40.00,19,8,26,0.00
2013-2-8,38,29,25,17,12,9,58,49,38,0.00,40.00,11,3,15,0.00
2013-2-9,32,25,21,15,11,7,73,56,47,0.00,40.00,20,10,37,0.00
2013-2-10,23,18,13,11,5,1,66,56,42,0.00,40.00,21,12,37,0.00
2013-2-11,29,21,14,12,7,3,63,56,43,0.00,40.00,7,4,15,0.00
2013-2-12,33,27,21,21,16,10,80,64,55,0.00,40.00,13,6,25,0.00
2013-2-13,37,32,28,19,15,10,61,51,40,0.00,40.00,32,22,56,0.00
2013-2-14,31,23,15,16,12,9,79,64,44,0.00,40.00,23,9,38,0.00
2013-2-15,41,31,22,19,15,10,61,52,39,0.00,40.00,22,8,32,0.00
2013-2-16,43,35,31,19,17,14,57,47,36,0.00,40.00,24,8,30,0.00
2013-2-17,30,25,22,20,14,9,74,60,51,0.00,40.00,29,16,48,0.00
2013-2-18,32,23,17,18,9,1,84,57,33,0.00,40.00,17,7,27,0.00
2013-2-19,34,26,20,14,8,2,52,45,37,0.00,40.00,14,6,22,0.00
2013-2-20,28,25,20,20,14,5,79,63,53,0.00,40.00,17,4,25,0.00
2013-2-21,30,22,15,9,5,-1,57,46,37,0.00,40.00,18,10,25,0.00
2013-2-22,33,26,20,12,9,6,61,47,38,0.00,40.00,23,12,34,0.00
2013-2-23,29,24,20,17,8,2,75,51,34,0.00,40.00,23,14,39,0.00
2013-2-24,33,24,14,7,5,2,57,44,30,0.00,40.00,19,10,29,0.00
2013-2-25,31,25,21,20,10,5,76,54,40,0.00,40.00,17,8,27,0.00
2013-2-26,29,23,20,11,6,3,66,49,37,0.00,40.00,13,8,24,0.00
2013-2-27,36,26,18,7,5,2,53,41,29,0.00,40.00,13,6,25,0.00
2013-2-28,39,30,25,25,11,2,86,45,34,0.00,40.00,8,5,20,0.00
2013-3-1,46,37,30,27,23,22,75,58,43,0.00,40.00,15,5,27,0.00
2013-3-2,49,40,35,22,21,18,55,45,32,0.00,40.00,15,8,29,0.00
2013-3-3,40,30,16,29,14,1,84,53,28,0.00,40.00,37,18,62,0.00
2013-3-4,22,15,11,5,1,-3,63,53,40,0.00,40.00,17,8,31,0.00
2013-3-5,32,25,12,9,5,0,58,42,32,0.00,40.00,13,7,20,0.00
2013-3-6,36,32,28,26,15,4,78,52,32,0.00,40.00,13,5,22,0.00
2013-3-7,38,31,25,25,13,8,88,49,30,0.00,40.00,17,9,29,0.00
2013-3-8,40,32,26,16,10,5,46,40,34,0.00,40.00,18,5,26,0.00
2013-3-9,39,30,24,13,10,5,55,44,32,0.00,40.00,16,9,30,0.00
2013-3-10,42,34,25,17,13,7,51,41,26,0.00,40.00,16,6,28,0.00
2013-3-11,35,30,20,18,13,7,64,51,35,0.00,40.00,26,14,41,0.00
2013-3-12,44,32,18,24,14,7,74,50,40,0.00,40.00,19,7,29,0.00
2013-3-13,52,43,37,23,20,17,54,42,27,0.00,40.00,21,10,33,0.00
2013-3-14,55,46,38,23,20,16,47,37,28,0.00,40.00,19,8,27,0.00
2013-3-15,48,43,37,21,18,14,48,37,27,0.00,40.00,16,7,28,0.00
2013-3-16,43,37,32,19,15,10,58,41,28,0.00,40.00,14,7,28,0.00
2013-3-17,36,26,20,23,9,1,88,49,35,0.00,40.00,34,17,52,0.00
2013-3-18,32,22,17,12,6,2,66,51,32,0.00,40.00,18,11,36,0.00
2013-3-19,37,27,19,10,4,-2,63,40,21,0.00,40.00,20,9,35,0.00
2013-3-20,48,37,29,26,13,-2,82,40,23,0.00,40.00,23,15,37,0.00
2013-3-21,30,26,19,22,9,2,82,50,33,0.00,40.00,19,10,32,0.00
2013-3-22,25,18,14,6,3,0,60,51,36,0.00,40.00,13,6,22,0.00
2013-3-23,25,16,10,11,1,-15,66,51,30,0.00,40.00,11,6,17,0.00
2013-3-24,28,19,12,11,2,-4,56,47,39,0.00,40.00,6,4,12,0.00
2013-3-25,42,28,18,3,-1,-5,40,29,16,0.00,40.00,16,7,26,0.00
2013-3-26,44,35,29,14,7,-2,38,31,22,0.00,40.00,7,4,16,0.00
2013-3-27,45,38,32,23,15,11,47,39,32,0.00,40.00,13,6,24,0.00
2013-3-28,50,46,40,26,23,20,58,41,32,0.00,40.00,13,7,20,0.00
2013-3-29,46,40,35,29,24,20,63,53,38,0.00,40.00,14,7,24,0.00
2013-3-30,51,41,33,23,19,15,62,44,26,0.00,40.00,17,9,29,0.00
2013-3-31,48,42,37,23,18,11,45,37,32,0.00,40.00,17,9,25,0.00
2013-4-1,53,43,33,20,17,11,51,36,23,0.00,40.00,8,4,18,0.00
2013-4-2,60,49,39,25,20,9,42,31,23,0.00,40.00,21,8,30,0.00
2013-4-3,51,46,40,24,22,19,49,40,31,0.00,40.00,15,6,31,0.00
2013-4-4,57,47,38,29,24,19,50,41,25,0.00,40.00,17,7,40,0.00
2013-4-5,52,44,37,32,24,16,66,46,27,0.00,40.00,18,10,33,0.00
2013-4-6,48,38,32,34,23,20,69,55,38,0.00,40.00,19,10,32,0.01
2013-4-7,43,34,25,32,25,18,88,70,56,0.00,40.00,19,7,30,0.01
2013-4-8,27,21,15,18,9,2,82,60,47,0.00,40.00,18,10,30,0.00
2013-4-9,33,21,11,8,3,0,64,48,30,0.00,40.00,15,5,24,0.02
2013-4-10,50,37,25,30,19,5,71,49,36,0.00,40.00,24,8,37,0.07
2013-4-11,45,37,30,28,18,11,73,47,30,0.00,40.00,34,17,48,0.05
2013-4-12,45,34,27,21,13,6,67,45,20,0.00,40.00,15,8,26,0.00
2013-4-13,42,33,24,29,14,0,84,47,22,0.00,40.00,28,16,46,0.00
2013-4-14,36,24,16,18,12,3,84,62,37,0.00,40.00,14,7,24,0.09
2013-4-15,26,19,14,6,3,1,65,51,38,0.00,40.00,20,13,32,0.01
2013-4-16,25,18,13,4,2,0,58,50,38,0.00,40.00,23,16,39,0.00
2013-4-17,29,21,14,4,1,-4,57,43,24,0.00,40.00,20,9,32,0.00
2013-4-18,42,31,22,15,9,2,47,40,31,0.00,40.00,15,9,26,0.00
2013-4-19,43,35,30,34,22,15,78,60,47,0.00,40.00,17,9,29,0.03
2013-4-20,49,39,33,25,21,16,65,48,30,0.00,40.00,25,10,37,0.01
2013-4-21,34,27,18,23,16,7,77,65,49,0.00,40.00,15,7,24,0.01
2013-4-22,29,23,17,11,6,-4,64,50,30,0.00,40.00,10,7,20,0.01
2013-4-23,38,28,20,12,8,1,54,41,27,0.00,40.00,15,8,23,0.01
2013-4-24,53,37,25,18,13,6,62,41,17,0.00,40.00,18,9,30,0.01
2013-4-25,56,46,37,17,12,5,33,25,19,0.00,40.00,20,11,33,0.00
2013-4-26,64,51,39,22,20,17,44,31,17,0.00,40.00,20,12,28,0.00
2013-4-27,64,53,43,25,19,13,44,28,14,0.00,40.00,25,14,43,0.00
2013-4-28,56,47,41,29,21,14,53,37,20,0.00,40.00,17,9,34,0.00
2013-4-29,48,41,31,31,18,3,67,40,20,0.00,40.00,35,19,56,0.01
2013-4-30,34,27,21,17,8,2,74,47,28,0.00,40.00,15,10,29,0.01
2013-5-1,39,30,21,17,9,2,63,44,22,0.00,40.00,13,8,22,0.00
2013-5-2,58,44,28,11,8,2,44,26,11,0.00,40.00,14,7,24,0.00
2013-5-3,51,44,36,29,19,4,72,40,18,0.00,40.00,20,9,29,0.00
2013-5-4,47,40,34,31,29,27,84,65,50,0.00,40.00,22,14,34,0.06
2013-5-5,59,47,35,29,26,23,75,46,28,0.00,40.00,10,6,19,0.01
2013-5-6,65,55,43,28,22,11,48,29,14,0.00,40.00,8,5,15,0.00
2013-5-7,60,56,50,29,26,21,39,33,27,0.00,40.00,26,16,37,0.00
2013-5-8,67,56,46,32,28,21,49,35,19,0.00,40.00,13,6,39,0.00
2013-5-9,64,57,50,31,27,25,41,32,23,0.00,40.00,10,6,26,0.00
2013-5-10,63,55,51,32,26,-100,42,34,25,0.00,40.00,18,9,34,0.00
2013-5-11,72,56,45,32,28,23,44,34,18,0.00,40.00,10,5,26,0.00
2013-5-12,75,65,55,35,30,26,38,28,17,0.00,40.00,21,9,33,0.00
2013-5-13,78,66,56,39,32,17,51,31,12,0.00,40.00,32,14,52,0.00
2013-5-14,67,54,45,36,22,16,63,30,15,0.00,40.00,24,12,41,0.00
2013-5-15,61,52,42,28,22,17,41,31,24,0.00,40.00,16,8,29,0.00
2013-5-16,54,44,42,40,16,-100,85,62,40,0.00,40.00,10,4,26,0.22
2013-5-17,49,44,42,43,32,-100,97,77,64,0.00,40.00,6,3,13,0.19
2013-5-18,51,44,40,43,40,36,100,88,71,0.00,40.00,13,4,19,0.40
2013-5-19,45,42,40,38,36,33,83,76,71,0.00,40.00,15,10,30,0.12
2013-5-20,55,45,41,41,38,35,90,76,49,0.00,40.00,15,7,30,0.04
2013-5-21,61,51,41,38,33,27,85,54,28,0.00,40.00,10,6,21,0.13
2013-5-22,51,45,39,44,35,28,95,70,54,0.00,40.00,18,8,26,0.27
2013-5-23,45,39,33,44,37,32,97,92,75,0.00,40.00,17,7,24,0.76
2013-5-24,52,42,32,35,28,22,97,62,32,0.00,40.00,21,12,42,0.14
2013-5-25,61,47,36,38,32,27,70,58,36,0.00,40.00,17,6,25,0.02
2013-5-26,59,50,41,38,34,30,84,55,39,0.00,40.00,15,6,35,0.04
2013-5-27,53,45,38,43,38,31,94,75,55,0.00,40.00,8,4,16,0.06
2013-5-28,50,44,40,44,38,31,96,80,54,0.00,40.00,14,5,25,0.82
2013-5-29,57,45,41,42,38,35,86,76,55,0.00,40.00,14,7,26,0.18
2013-5-30,50,43,38,36,31,27,77,61,49,0.00,40.00,25,17,39,0.10
2013-5-31,46,41,36,35,31,27,84,69,60,0.00,40.00,25,15,36,0.00
2013-6-1,57,48,36,38,31,25,79,54,34,0.00,40.00,9,4,25,0.00
2013-6-2,61,49,39,42,36,28,93,63,40,0.00,40.00,19,8,34,0.66
2013-6-3,48,41,37,39,35,32,90,81,63,0.00,40.00,19,11,36,0.49
2013-6-4,49,42,34,37,32,28,89,69,55,0.00,40.00,12,6,21,0.02
2013-6-5,66,52,39,41,35,26,64,52,38,0.00,40.00,8,4,15,0.00
2013-6-6,68,60,50,43,38,31,50,44,36,0.00,40.00,10,5,15,0.00
2013-6-7,73,64,57,45,40,35,49,42,31,0.00,40.00,24,10,40,0.00
2013-6-8,72,61,49,37,30,21,56,34,17,0.00,40.00,27,11,47,0.01
2013-6-9,79,64,52,38,29,20,44,29,14,0.00,40.00,20,11,37,0.00
2013-6-10,71,62,50,35,28,20,36,28,22,0.00,40.00,15,8,32,0.00
2013-6-11,66,56,50,50,45,39,94,68,50,0.00,40.00,16,5,43,0.43
2013-6-12,69,56,48,51,46,38,93,71,33,0.00,40.00,19,6,32,0.06
2013-6-13,57,49,41,48,41,31,89,74,62,0.00,40.00,26,9,41,0.14
2013-6-14,55,46,38,32,28,22,75,52,30,0.00,40.00,20,10,36,0.01
2013-6-15,67,54,42,34,28,23,55,38,20,0.00,40.00,14,6,21,0.00
2013-6-16,68,61,50,40,33,22,49,35,29,0.00,40.00,13,7,21,0.00
2013-6-17,76,61,50,45,41,33,70,50,25,0.00,40.00,19,6,28,0.00
2013-6-18,80,68,53,45,38,29,69,38,18,0.00,40.00,19,7,28,0.00
2013-6-19,73,58,41,45,41,34,90,56,36,0.00,40.00,26,9,39,0.35
2013-6-20,49,42,39,39,32,29,85,68,53,0.00,40.00,21,16,32,0.36
2013-6-22,54,48,43,43,40,37,83,74,63,0.00,40.00,9,6,20,0.13
2013-6-23,66,55,45,41,35,31,73,50,32,0.00,40.00,16,7,28,0.03
2013-6-24,70,60,52,47,40,32,84,49,34,0.00,40.00,15,6,36,0.10
2013-6-25,66,56,47,47,40,34,83,57,31,0.00,40.00,19,9,31,0.12
2013-6-26,69,59,52,45,41,39,66,53,38,0.00,40.00,18,10,31,0.01
2013-6-27,73,62,53,49,44,40,67,52,36,0.00,40.00,15,6,20,0.00
2013-6-28,81,72,61,48,43,35,46,36,29,0.00,40.00,12,7,20,0.00
2013-6-29,81,71,62,54,48,39,63,45,30,0.00,40.00,17,7,30,0.00
2013-6-30,79,70,57,54,48,42,61,47,37,0.00,40.00,13,6,18,0.00
2013-7-1,84,77,66,53,47,41,53,37,22,0.00,40.00,13,7,19,0.00
2013-7-2,88,78,67,53,49,41,54,37,24,0.00,40.00,8,6,37,0.04
2013-7-3,85,78,71,51,44,37,46,31,22,0.00,40.00,17,12,30,0.04
2013-7-4,77,72,64,48,43,37,45,36,29,0.00,40.00,17,8,24,0.00
2013-7-5,73,65,56,49,39,30,77,41,27,0.00,40.00,19,10,30,0.14
2013-7-6,73,62,51,48,42,34,78,51,27,0.00,40.00,16,8,24,0.10
2013-7-7,75,65,54,49,45,37,66,49,34,0.00,40.00,12,6,29,0.01
2013-7-8,74,65,58,50,42,31,55,44,32,0.00,40.00,15,6,37,0.23
2013-7-9,74,65,51,45,37,31,54,37,27,0.00,40.00,11,7,27,0.01
2013-7-10,86,76,67,44,29,-100,35,20,12,0.00,40.00,17,10,31,0.00
2013-7-11,78,69,57,42,37,33,51,32,22,0.00,40.00,23,14,35,0.00
2013-7-12,74,64,53,44,37,32,50,38,23,0.00,40.00,16,10,44,0.03
2013-7-13,70,65,57,42,36,30,54,36,24,0.00,40.00,21,12,32,0.03
2013-7-14,76,63,52,47,42,33,70,49,21,0.00,40.00,16,9,25,0.00
2013-7-15,86,76,60,44,34,27,48,24,12,0.00,40.00,21,12,37,0.00
2013-7-16,76,69,62,47,44,42,57,40,31,0.00,40.00,10,8,19,0.00
2013-7-20,79,72,64,41,31,-100,30,22,17,0.00,40.00,9,6,17,0.00
2013-7-21,82,73,61,33,29,24,28,20,15,0.00,40.00,17,9,27,0.00
2013-7-22,84,76,63,33,27,16,24,17,8,0.00,40.00,18,10,33,0.00
2013-7-23,81,72,63,36,30,24,31,22,15,0.00,40.00,16,8,21,0.00
2013-7-24,84,78,66,42,34,14,31,22,9,0.00,40.00,26,10,29,0.00
2013-7-25,80,70,60,48,41,36,57,37,23,0.00,40.00,25,7,37,0.00
2013-7-26,83,70,58,49,41,22,62,39,14,0.00,40.00,17,6,26,0.00
2013-7-27,81,72,63,43,34,26,46,26,17,0.00,40.00,16,8,27,0.00
2013-7-28,72,64,56,51,42,31,60,45,30,0.00,40.00,16,6,25,0.04
2013-7-29,70,59,48,46,44,40,89,59,34,0.00,40.00,17,7,28,0.08
2013-7-30,69,60,50,48,44,36,75,57,35,0.00,40.00,11,4,23,0.03
2013-7-31,79,69,56,45,38,29,52,34,17,0.00,40.00,12,5,27,0.03
2013-8-1,73,60,52,50,44,35,91,59,34,0.00,40.00,25,9,46,0.14
2013-8-2,68,58,48,48,43,37,95,63,36,0.00,40.00,17,8,45,0.17
2013-8-3,69,60,51,46,41,36,62,51,38,0.00,40.00,12,6,19,0.00
2013-8-4,73,64,54,47,39,32,54,40,25,0.00,40.00,15,7,23,0.00
2013-8-5,77,69,61,46,36,32,48,30,21,0.00,40.00,16,9,34,0.00
2013-8-6,77,68,57,43,37,33,60,34,21,0.00,40.00,12,7,25,0.00
2013-9-24,51,44,35,42,33,27,95,67,45,0.00,40.00,23,6,32,0.34
2013-9-25,41,37,32,35,32,30,96,85,75,0.00,40.00,25,11,44,0.18
2013-9-26,35,33,32,32,28,23,96,81,65,0.00,40.00,28,18,42,0.10
2013-9-27,43,36,31,28,24,19,77,61,50,0.00,40.00,16,8,27,0.02
2013-9-28,50,44,37,33,30,26,67,59,46,0.00,40.00,26,16,41,0.00
2013-9-29,52,45,37,35,30,28,90,58,44,0.00,40.00,38,17,58,0.02
2013-9-30,48,43,36,37,28,17,92,59,32,0.00,40.00,28,16,62,0.16
2013-12-26,44,38,32,24,20,7,59,48,34,0.00,40.00,14,4,26,0.00
2013-12-27,46,40,36,24,17,11,46,39,32,0.00,40.00,16,7,25,0.00
2013-12-28,39,24,14,20,12,7,78,63,33,0.00,40.00,18,7,31,0.00
2013-12-29,31,25,19,20,13,8,70,60,44,0.00,40.00,22,6,32,0.00
2013-12-30,37,32,29,24,19,16,70,58,45,0.00,40.00,22,10,33,0.00
2013-12-31,38,33,30,29,24,19,80,69,54,0.00,40.00,29,11,46,0.00
2014-1-1,33,28,25,20,14,11,67,56,44,0.00,40.00,25,12,42,0.00